Time;durP1;ratioP1;P1;durP2;ratioP2;P2;SDS_P1;SDS_P2;PMS_P1;PMS_P2;Temp;Humidity;BMP_temperature;BMP_pressure;BME280_temperature;BME280_humidity;BME280_pressure;Samples;Min_cycle;Max_cycle;Signal;HPM_P1;HPM_P2
2024/02/23 00:01:40;;;;;;;3.40;0.97;;;5.50;30.20;;;;;;5014979;28;20435;-70
2024/02/23 00:04:07;;;;;;;2.10;0.50;;;5.50;30.30;;;;;;5014614;28;20410;-70
2024/02/23 00:06:34;;;;;;;1.40;0.50;;;5.50;30.00;;;;;;5013452;28;20184;-69
2024/02/23 00:08:59;;;;;;;1.50;0.50;;;5.50;31.10;;;;;;5014826;28;20462;-69
2024/02/23 00:11:25;;;;;;;1.40;0.40;;;5.50;27.50;;;;;;5014665;28;20438;-69
2024/02/23 00:13:50;;;;;;;1.30;0.40;;;5.60;28.30;;;;;;5014684;28;20258;-69
2024/02/23 00:16:16;;;;;;;1.40;0.40;;;5.60;27.60;;;;;;5013642;28;20182;-71
2024/02/23 00:18:41;;;;;;;1.60;0.77;;;5.60;26.10;;;;;;5014606;28;20262;-69
2024/02/23 00:21:07;;;;;;;1.40;0.50;;;5.50;26.40;;;;;;5014254;28;20172;-71
2024/02/23 00:23:33;;;;;;;2.67;0.97;;;5.50;26.00;;;;;;5014739;28;20199;-69
2024/02/23 00:25:59;;;;;;;4.23;0.90;;;5.40;24.60;;;;;;5014277;28;20180;-69
2024/02/23 00:28:25;;;;;;;1.40;0.50;;;5.30;22.60;;;;;;5013355;28;20764;-70
2024/02/23 00:30:50;;;;;;;1.70;0.60;;;5.20;24.40;;;;;;5014366;28;20220;-68
2024/02/23 00:33:16;;;;;;;2.63;0.80;;;5.10;25.50;;;;;;5013006;28;20196;-69
2024/02/23 00:35:41;;;;;;;11.10;0.90;;;5.00;24.10;;;;;;4997188;28;20197;-70
2024/02/23 00:38:07;;;;;;;1.50;0.60;;;4.90;24.60;;;;;;5014815;28;20183;-70
2024/02/23 00:40:33;;;;;;;1.50;0.60;;;4.70;23.70;;;;;;5013191;28;20195;-69
2024/02/23 00:43:00;;;;;;;4.60;0.80;;;4.70;26.30;;;;;;5029781;28;20481;-70
2024/02/23 00:45:25;;;;;;;2.38;0.88;;;4.60;26.50;;;;;;5014766;28;20271;-68
2024/02/23 00:47:51;;;;;;;3.70;0.90;;;4.60;26.50;;;;;;5013203;28;20749;-69
2024/02/23 00:50:17;;;;;;;2.70;0.70;;;4.50;25.90;;;;;;5014398;28;20688;-68
2024/02/23 00:52:42;;;;;;;3.40;0.50;;;4.50;27.60;;;;;;5012310;28;20669;-68
2024/02/23 00:55:08;;;;;;;1.90;0.60;;;4.50;26.80;;;;;;5013693;28;20182;-68
2024/02/23 00:57:35;;;;;;;1.60;0.60;;;4.50;24.50;;;;;;5012529;28;20196;-67
2024/02/23 01:00:02;;;;;;;3.50;0.77;;;4.40;24.40;;;;;;5012006;28;20422;-66
2024/02/23 01:02:29;;;;;;;1.90;0.60;;;4.50;26.30;;;;;;5013242;28;20524;-66
2024/02/23 01:04:56;;;;;;;1.63;0.60;;;4.50;27.80;;;;;;5013568;28;20423;-67
2024/02/23 01:07:22;;;;;;;1.40;0.50;;;4.50;26.40;;;;;;5012556;28;20788;-68
2024/02/23 01:09:48;;;;;;;1.40;0.50;;;4.50;26.90;;;;;;5011809;28;20496;-66
2024/02/23 01:12:14;;;;;;;5.43;0.97;;;4.50;25.90;;;;;;5013061;28;20926;-67
2024/02/23 01:14:40;;;;;;;2.33;0.50;;;4.50;25.20;;;;;;5011752;28;20225;-68
2024/02/23 01:17:05;;;;;;;2.23;0.80;;;4.50;25.00;;;;;;5011950;28;20273;-66
2024/02/23 01:19:31;;;;;;;1.60;0.50;;;4.50;24.00;;;;;;5011544;28;20477;-67
2024/02/23 01:21:59;;;;;;;1.77;0.70;;;4.50;25.10;;;;;;5012772;28;20172;-67
2024/02/23 01:24:27;;;;;;;1.60;0.50;;;4.50;25.20;;;;;;5012913;28;20306;-67
2024/02/23 01:26:54;;;;;;;2.33;0.90;;;4.50;24.70;;;;;;5012743;28;20471;-67
2024/02/23 01:29:22;;;;;;;2.23;0.90;;;4.50;24.70;;;;;;5012413;28;20464;-67
2024/02/23 01:31:48;;;;;;;3.95;1.30;;;4.50;24.80;;;;;;5012707;28;20422;-66
2024/02/23 01:34:13;;;;;;;2.40;1.10;;;4.50;25.90;;;;;;5012758;28;20177;-66
2024/02/23 01:36:39;;;;;;;2.03;0.60;;;4.50;25.60;;;;;;5012621;28;20414;-68
2024/02/23 01:39:05;;;;;;;1.80;0.70;;;4.50;25.20;;;;;;5011174;28;20228;-68
2024/02/23 01:41:32;;;;;;;3.40;0.90;;;4.60;24.70;;;;;;5012691;28;20534;-67
2024/02/23 01:43:57;;;;;;;1.60;0.50;;;4.60;24.20;;;;;;5012599;28;20432;-67
2024/02/23 01:46:23;;;;;;;1.80;0.77;;;4.60;23.60;;;;;;5012659;28;20467;-67
2024/02/23 01:48:49;;;;;;;2.07;0.60;;;4.60;22.60;;;;;;5011074;28;20633;-67
2024/02/23 01:51:14;;;;;;;1.50;0.50;;;4.70;24.10;;;;;;5012478;28;20178;-68
2024/02/23 01:53:41;;;;;;;1.47;0.50;;;4.70;22.70;;;;;;5012589;28;20218;-67
2024/02/23 01:56:07;;;;;;;1.30;0.40;;;4.70;24.10;;;;;;5012792;28;20173;-66
2024/02/23 01:58:35;;;;;;;1.70;0.60;;;4.70;23.50;;;;;;5012444;28;20421;-67
2024/02/23 02:01:01;;;;;;;1.60;0.50;;;4.70;23.50;;;;;;5012124;28;20424;-67
2024/02/23 02:03:26;;;;;;;1.90;0.60;;;4.70;22.80;;;;;;5011058;28;20437;-67
2024/02/23 02:05:53;;;;;;;1.50;0.50;;;4.70;23.10;;;;;;5012266;28;20420;-67
2024/02/23 02:08:20;;;;;;;1.40;0.50;;;4.70;21.90;;;;;;5011202;28;20323;-68
2024/02/23 02:10:47;;;;;;;1.50;0.50;;;4.70;19.90;;;;;;5012155;28;20469;-67
2024/02/23 02:13:12;;;;;;;2.57;0.50;;;4.70;20.50;;;;;;5035661;22;20502;-70
2024/02/23 02:15:38;;;;;;;1.70;0.60;;;4.70;21.20;;;;;;5010980;28;20508;-70
2024/02/23 02:18:04;;;;;;;1.80;0.77;;;4.80;19.80;;;;;;5012174;28;20194;-70
2024/02/23 02:20:32;;;;;;;3.83;0.53;;;4.80;18.80;;;;;;5010225;28;20422;-70
2024/02/23 02:22:58;;;;;;;2.83;0.43;;;4.90;15.80;;;;;;5010582;28;20474;-70
2024/02/23 02:25:23;;;;;;;1.50;0.50;;;5.00;15.20;;;;;;5011038;28;20430;-71
2024/02/23 02:27:49;;;;;;;2.77;0.60;;;5.00;15.00;;;;;;5012081;28;20182;-70
2024/02/23 02:30:15;;;;;;;1.70;0.57;;;5.00;14.80;;;;;;5011797;28;20215;-71
2024/02/23 02:32:40;;;;;;;1.90;0.40;;;5.10;13.10;;;;;;5012014;28;20278;-71
2024/02/23 02:35:06;;;;;;;1.60;0.50;;;5.10;12.20;;;;;;5012693;28;20191;-71
2024/02/23 02:37:32;;;;;;;1.40;0.50;;;5.20;12.30;;;;;;5019020;28;20239;-71
2024/02/23 02:39:57;;;;;;;4.50;0.60;;;5.10;12.40;;;;;;5017919;28;20590;-71
2024/02/23 02:42:23;;;;;;;1.80;0.70;;;5.20;11.70;;;;;;5016358;28;20702;-71
2024/02/23 02:44:48;;;;;;;2.20;0.70;;;5.20;11.70;;;;;;5012262;28;20195;-70
2024/02/23 02:47:14;;;;;;;1.50;0.50;;;5.20;10.90;;;;;;5027278;28;20184;-70
2024/02/23 02:49:40;;;;;;;1.50;0.50;;;5.20;10.20;;;;;;5011622;28;20217;-76
2024/02/23 02:52:06;;;;;;;1.90;0.70;;;5.20;10.50;;;;;;5011802;28;20180;-71
2024/02/23 02:54:31;;;;;;;2.57;1.17;;;5.20;10.20;;;;;;5010802;28;20438;-71
2024/02/23 02:56:58;;;;;;;2.17;0.60;;;5.20;8.50;;;;;;5011883;28;20227;-71
2024/02/23 02:59:23;;;;;;;2.10;0.70;;;5.20;8.50;;;;;;5010550;28;20190;-71
2024/02/23 03:01:49;;;;;;;1.50;0.50;;;5.20;7.70;;;;;;5026929;28;20842;-73
2024/02/23 03:04:14;;;;;;;3.30;0.63;;;5.20;7.40;;;;;;5011687;28;20210;-71
2024/02/23 03:06:40;;;;;;;1.40;0.40;;;5.20;8.60;;;;;;5011706;28;20244;-71
2024/02/23 03:09:07;;;;;;;1.60;0.50;;;5.30;8.20;;;;;;5010365;28;20264;-72
2024/02/23 03:11:32;;;;;;;2.33;0.70;;;5.30;6.50;;;;;;5010463;28;20227;-72
2024/02/23 03:13:58;;;;;;;1.50;0.50;;;5.30;7.40;;;;;;5026761;28;20538;-72
2024/02/23 03:16:25;;;;;;;2.00;0.60;;;5.20;7.40;;;;;;5011713;28;20551;-72
2024/02/23 03:18:54;;;;;;;1.80;0.50;;;5.20;7.40;;;;;;5010181;28;20180;-72
2024/02/23 03:21:19;;;;;;;1.70;0.70;;;5.20;7.40;;;;;;5011377;28;20926;-72
2024/02/23 03:23:45;;;;;;;1.80;0.53;;;5.20;5.40;;;;;;5011472;28;20473;-72
2024/02/23 03:26:11;;;;;;;2.17;0.40;;;5.20;7.40;;;;;;5010229;28;20185;-72
2024/02/23 03:28:36;;;;;;;2.70;0.50;;;5.10;6.40;;;;;;5010197;28;20172;-72
2024/02/23 03:31:02;;;;;;;2.37;0.93;;;5.10;5.50;;;;;;5011001;28;20172;-72
2024/02/23 03:33:28;;;;;;;2.50;0.80;;;5.10;7.30;;;;;;5013639;28;20203;-72
2024/02/23 03:35:53;;;;;;;1.57;0.50;;;5.10;7.30;;;;;;5030206;28;20184;-73
2024/02/23 03:38:19;;;;;;;1.80;0.40;;;5.10;7.30;;;;;;5013702;28;20179;-73
2024/02/23 03:40:45;;;;;;;1.60;0.60;;;5.10;7.30;;;;;;5013502;28;20187;-73
2024/02/23 03:43:11;;;;;;;2.43;0.50;;;5.00;7.30;;;;;;5013509;28;20210;-73
2024/02/23 03:45:36;;;;;;;1.87;0.70;;;5.00;7.70;;;;;;5014990;28;20978;-72
2024/02/23 03:48:04;;;;;;;3.00;1.33;;;5.00;7.20;;;;;;5014827;28;20332;-72
2024/02/23 03:50:30;;;;;;;4.00;0.50;;;5.00;6.00;;;;;;5014400;28;20243;-72
2024/02/23 03:52:55;;;;;;;2.43;0.50;;;5.00;5.80;;;;;;5014641;28;20438;-73
2024/02/23 03:55:21;;;;;;;1.50;0.50;;;5.00;6.30;;;;;;5014649;28;20430;-73
2024/02/23 03:57:47;;;;;;;3.80;0.87;;;4.90;7.20;;;;;;5014811;28;20167;-72
2024/02/23 04:00:13;;;;;;;2.27;0.50;;;4.90;7.20;;;;;;5014468;28;20423;-73
2024/02/23 04:02:39;;;;;;;2.57;1.00;;;4.90;6.00;;;;;;5013048;28;20212;-73
2024/02/23 04:05:05;;;;;;;1.60;0.60;;;4.90;6.20;;;;;;5013058;28;20928;-73
2024/02/23 04:07:31;;;;;;;2.10;0.60;;;4.90;6.60;;;;;;5014527;28;20417;-72
2024/02/23 04:09:57;;;;;;;1.50;0.60;;;4.90;8.00;;;;;;5012780;28;20460;-72
2024/02/23 04:12:22;;;;;;;1.60;0.50;;;4.90;7.20;;;;;;5013138;28;20454;-72
2024/02/23 04:14:48;;;;;;;3.63;0.63;;;4.80;6.70;;;;;;5013177;28;20172;-72
2024/02/23 04:17:14;;;;;;;2.00;0.70;;;4.90;7.20;;;;;;5014225;28;20174;-72
2024/02/23 04:19:43;;;;;;;1.70;0.60;;;4.90;4.90;;;;;;5012901;28;20234;-72
2024/02/23 04:22:09;;;;;;;2.67;0.80;;;4.90;6.50;;;;;;5014370;28;21096;-71
2024/02/23 04:24:40;;;;;;;1.60;0.70;;;4.90;6.60;;;;;;5012973;28;20437;-72
2024/02/23 04:27:06;;;;;;;1.60;0.50;;;4.80;7.10;;;;;;5014116;28;20501;-73
2024/02/23 04:29:32;;;;;;;1.70;0.70;;;4.80;7.10;;;;;;5012388;28;20976;-72
2024/02/23 04:31:59;;;;;;;1.50;0.53;;;4.80;7.10;;;;;;5012766;28;20490;-72
2024/02/23 04:34:24;;;;;;;1.80;0.70;;;4.90;7.00;;;;;;5014175;28;20411;-73
2024/02/23 04:36:50;;;;;;;2.17;0.73;;;4.90;7.20;;;;;;5012596;28;20414;-72
2024/02/23 04:39:15;;;;;;;4.03;0.70;;;4.80;7.10;;;;;;5013492;28;20207;-73
2024/02/23 04:41:41;;;;;;;3.57;1.07;;;4.80;6.10;;;;;;5013651;28;20183;-72
2024/02/23 04:44:06;;;;;;;1.80;0.53;;;4.80;6.40;;;;;;5012472;28;20199;-73
2024/02/23 04:46:34;;;;;;;1.50;0.50;;;4.80;6.60;;;;;;5012334;28;20262;-73
2024/02/23 04:48:59;;;;;;;1.50;0.50;;;4.70;7.00;;;;;;5013513;28;20575;-73
2024/02/23 04:51:25;;;;;;;2.10;0.63;;;4.70;7.40;;;;;;5013204;28;20422;-72
2024/02/23 04:53:51;;;;;;;3.23;0.53;;;4.70;7.00;;;;;;5012104;28;20199;-71
2024/02/23 04:56:16;;;;;;;3.97;1.00;;;4.70;7.00;;;;;;5012168;28;20270;-72
2024/02/23 04:58:43;;;;;;;6.70;0.83;;;4.70;7.30;;;;;;5014207;28;20677;-72
2024/02/23 05:01:08;;;;;;;3.47;0.70;;;4.70;7.30;;;;;;5011807;28;20180;-72
2024/02/23 05:03:34;;;;;;;2.57;0.73;;;4.70;8.00;;;;;;5011829;28;20457;-73
2024/02/23 05:06:00;;;;;;;1.70;0.77;;;4.70;7.80;;;;;;5012213;28;20183;-71
2024/02/23 05:08:27;;;;;;;3.73;1.03;;;4.70;8.70;;;;;;5013286;28;20174;-73
2024/02/23 05:10:53;;;;;;;1.90;0.60;;;4.70;7.50;;;;;;5013074;28;20697;-73
2024/02/23 05:13:19;;;;;;;1.60;0.50;;;4.70;7.00;;;;;;5011945;28;20474;-73
2024/02/23 05:15:44;;;;;;;3.17;0.90;;;4.70;7.10;;;;;;5011877;28;20430;-73
2024/02/23 05:18:10;;;;;;;1.60;0.60;;;4.70;6.30;;;;;;5013207;28;20831;-73
2024/02/23 05:20:35;;;;;;;2.60;0.60;;;4.70;7.00;;;;;;5011603;28;20228;-72
2024/02/23 05:23:01;;;;;;;2.13;0.80;;;4.70;7.00;;;;;;5012991;28;20290;-75
2024/02/23 05:25:27;;;;;;;3.73;0.77;;;4.70;7.00;;;;;;5011827;28;20181;-73
2024/02/23 05:27:53;;;;;;;2.10;0.67;;;4.70;7.30;;;;;;5013306;28;20175;-73
2024/02/23 05:30:19;;;;;;;4.17;1.10;;;4.60;7.30;;;;;;5011396;28;21027;-72
2024/02/23 05:32:44;;;;;;;3.53;0.97;;;4.60;8.10;;;;;;5012774;28;20565;-72
2024/02/23 05:35:10;;;;;;;2.20;0.60;;;4.60;7.00;;;;;;5012892;28;20649;-72
2024/02/23 05:37:36;;;;;;;2.37;1.00;;;4.60;6.20;;;;;;5028083;28;20262;-72
2024/02/23 05:40:06;;;;;;;2.63;1.00;;;4.60;7.00;;;;;;5011358;28;20221;-72
2024/02/23 05:42:32;;;;;;;2.20;1.00;;;4.50;6.90;;;;;;5011282;28;20439;-73
2024/02/23 05:44:57;;;;;;;2.33;0.83;;;4.60;5.90;;;;;;5011332;28;20475;-73
2024/02/23 05:47:23;;;;;;;4.43;0.80;;;4.60;5.70;;;;;;5011760;28;20464;-77
2024/02/23 05:49:50;;;;;;;2.10;0.70;;;4.60;5.20;;;;;;5012554;28;20242;-72
2024/02/23 05:52:16;;;;;;;2.73;1.00;;;4.60;5.60;;;;;;5012661;28;20228;-73
2024/02/23 05:54:41;;;;;;;1.73;0.77;;;4.50;5.70;;;;;;5011833;28;20936;-72
2024/02/23 05:57:07;;;;;;;2.10;1.20;;;4.50;5.60;;;;;;5011259;28;20266;-71
2024/02/23 05:59:32;;;;;;;1.67;0.60;;;4.50;6.00;;;;;;5011270;28;20270;-70
2024/02/23 06:01:58;;;;;;;2.33;0.93;;;4.40;6.00;;;;;;5011812;28;20182;-71
2024/02/23 06:04:24;;;;;;;1.80;0.83;;;4.40;5.90;;;;;;5013301;28;20256;-69
2024/02/23 06:06:49;;;;;;;3.53;1.00;;;4.50;5.80;;;;;;5012580;28;20192;-69
2024/02/23 06:09:15;;;;;;;2.30;1.17;;;4.40;5.60;;;;;;5011220;28;20456;-71
2024/02/23 06:11:44;;;;;;;3.43;1.10;;;4.40;5.50;;;;;;5010990;28;20183;-73
2024/02/23 06:14:09;;;;;;;2.30;1.17;;;4.40;4.30;;;;;;5012382;28;20491;-72
2024/02/23 06:16:35;;;;;;;2.17;0.90;;;4.40;4.30;;;;;;5012375;28;20418;-75
2024/02/23 06:19:03;;;;;;;3.00;1.07;;;4.40;3.40;;;;;;5012458;28;20182;-73
2024/02/23 06:21:29;;;;;;;3.47;1.53;;;4.50;2.40;;;;;;5012210;28;20171;-73
2024/02/23 06:23:55;;;;;;;2.47;1.10;;;4.40;2.60;;;;;;5012171;28;20567;-73
2024/02/23 06:26:21;;;;;;;4.83;1.30;;;4.50;2.50;;;;;;5010882;28;20187;-73
2024/02/23 06:28:48;;;;;;;4.40;0.90;;;4.40;2.40;;;;;;5010809;28;20432;-73
2024/02/23 06:31:14;;;;;;;5.00;1.30;;;4.50;1.00;;;;;;5010790;28;20433;-74
2024/02/23 06:33:40;;;;;;;4.50;1.30;;;4.50;1.50;;;;;;5011914;28;20429;-73
2024/02/23 06:36:07;;;;;;;2.50;0.87;;;4.50;1.00;;;;;;5010206;28;20182;-74
2024/02/23 06:38:33;;;;;;;1.80;1.13;;;4.50;1.00;;;;;;5012253;28;20829;-74
2024/02/23 06:40:59;;;;;;;3.17;1.37;;;4.50;1.00;;;;;;5010460;28;20418;-74
2024/02/23 06:43:24;;;;;;;1.70;0.67;;;4.60;1.00;;;;;;5010680;28;20455;-74
2024/02/23 06:45:51;;;;;;;5.70;1.20;;;4.60;1.00;;;;;;5010693;28;20686;-72
2024/02/23 06:48:17;;;;;;;2.77;1.20;;;4.60;1.00;;;;;;4994326;28;20186;-72
2024/02/23 06:50:42;;;;;;;1.60;0.60;;;4.70;1.00;;;;;;5010370;28;20460;-72
2024/02/23 06:53:08;;;;;;;2.63;0.90;;;4.70;1.00;;;;;;5010462;28;20207;-71
2024/02/23 06:55:36;;;;;;;2.77;1.00;;;4.70;1.00;;;;;;5006466;28;20661;-73
2024/02/23 06:58:04;;;;;;;2.80;0.80;;;4.80;1.00;;;;;;5004477;28;20262;-72
2024/02/23 07:00:30;;;;;;;4.00;1.20;;;4.70;1.00;;;;;;5011356;28;20438;-68
2024/02/23 07:02:58;;;;;;;3.40;1.23;;;4.80;1.00;;;;;;5005177;28;20947;-68
2024/02/23 07:05:24;;;;;;;2.33;1.13;;;4.80;1.00;;;;;;4993370;28;20471;-70
2024/02/23 07:07:50;;;;;;;2.70;0.90;;;4.80;1.00;;;;;;4995799;28;20423;-72
2024/02/23 07:10:17;;;;;;;3.20;1.33;;;4.80;1.00;;;;;;4995473;28;20267;-70
2024/02/23 07:12:44;;;;;;;2.50;1.40;;;4.90;1.00;;;;;;4994254;28;20555;-70
2024/02/23 07:15:10;;;;;;;4.23;2.10;;;4.90;1.00;;;;;;4995707;28;20414;-70
2024/02/23 07:17:35;;;;;;;3.40;0.80;;;4.90;1.00;;;;;;4994508;28;20420;-70
2024/02/23 07:20:05;;;;;;;3.07;1.20;;;4.90;1.00;;;;;;4995460;28;20656;-71
2024/02/23 07:22:32;;;;;;;2.40;0.93;;;4.90;1.00;;;;;;4995467;28;20203;-70
2024/02/23 07:24:57;;;;;;;3.00;1.10;;;5.00;1.00;;;;;;4994034;28;20420;-71
2024/02/23 07:27:23;;;;;;;2.37;0.87;;;5.00;1.00;;;;;;4995644;28;20773;-72
2024/02/23 07:29:49;;;;;;;3.20;0.80;;;5.00;1.00;;;;;;4995078;28;20207;-70
2024/02/23 07:32:15;;;;;;;4.87;1.00;;;5.20;1.00;;;;;;4995339;28;20192;-70
2024/02/23 07:34:41;;;;;;;3.33;1.20;;;5.20;1.00;;;;;;4995333;28;20422;-70
2024/02/23 07:37:06;;;;;;;2.03;1.00;;;5.30;1.00;;;;;;4994046;28;20417;-70
2024/02/23 07:39:32;;;;;;;2.57;0.87;;;5.40;1.00;;;;;;4995080;28;20184;-71
2024/02/23 07:41:57;;;;;;;4.20;1.43;;;5.50;1.00;;;;;;4993826;28;20211;-71
2024/02/23 07:44:24;;;;;;;2.83;1.50;;;5.60;1.00;;;;;;4995084;28;20706;-71
2024/02/23 07:46:52;;;;;;;3.43;1.50;;;5.60;1.00;;;;;;4995094;28;20173;-70
2024/02/23 07:49:18;;;;;;;5.13;1.80;;;5.60;1.00;;;;;;4994861;28;20474;-70
2024/02/23 07:51:43;;;;;;;3.67;1.23;;;5.70;1.00;;;;;;4995070;28;21037;-71
2024/02/23 07:54:09;;;;;;;3.97;1.60;;;5.70;1.00;;;;;;4994942;28;20424;-71
2024/02/23 07:56:35;;;;;;;1.90;1.07;;;5.90;1.00;;;;;;4995015;28;20172;-71
2024/02/23 07:59:03;;;;;;;6.37;1.40;;;6.00;1.00;;;;;;4994982;28;20181;-71
2024/02/23 08:01:28;;;;;;;2.27;1.07;;;5.80;1.00;;;;;;4994892;28;20923;-71
2024/02/23 08:03:54;;;;;;;10.13;2.03;;;5.90;1.00;;;;;;4994735;28;20467;-71
2024/02/23 08:06:19;;;;;;;3.67;1.57;;;6.00;1.00;;;;;;4993454;28;20267;-70
2024/02/23 08:08:46;;;;;;;2.63;1.10;;;6.00;1.00;;;;;;4993453;28;20176;-71
2024/02/23 08:11:13;;;;;;;1.90;1.00;;;6.00;1.00;;;;;;4994696;28;20172;-70
2024/02/23 08:13:39;;;;;;;2.60;1.53;;;6.00;1.00;;;;;;5030423;23;20494;-68
2024/02/23 08:16:05;;;;;;;4.37;1.63;;;5.90;1.00;;;;;;5030751;28;20403;-69
2024/02/23 08:18:31;;;;;;;2.87;1.80;;;6.00;1.00;;;;;;5014944;28;20175;-69
2024/02/23 08:20:58;;;;;;;8.50;1.40;;;6.10;1.00;;;;;;5014796;28;20468;-70
2024/02/23 08:23:24;;;;;;;2.30;1.10;;;6.30;1.00;;;;;;5014673;28;20192;-70
2024/02/23 08:25:50;;;;;;;2.10;1.10;;;6.40;1.00;;;;;;5015035;28;20403;-69
2024/02/23 08:28:16;;;;;;;2.17;1.37;;;6.40;1.00;;;;;;5015496;28;20422;-69
2024/02/23 08:30:41;;;;;;;2.63;1.40;;;6.40;1.00;;;;;;5014849;28;20792;-69
2024/02/23 08:33:09;;;;;;;2.30;1.33;;;6.40;1.00;;;;;;5015709;28;20486;-70
2024/02/23 08:35:35;;;;;;;5.07;1.40;;;6.50;1.00;;;;;;5015213;28;20172;-69
2024/02/23 08:38:01;;;;;;;2.10;1.00;;;6.60;1.00;;;;;;5014964;28;20775;-69
2024/02/23 08:40:26;;;;;;;2.93;1.07;;;6.60;1.00;;;;;;5014964;28;20565;-69
2024/02/23 08:42:52;;;;;;;4.43;1.57;;;6.50;1.00;;;;;;5014940;28;20205;-69
2024/02/23 08:45:18;;;;;;;1.70;0.90;;;6.50;1.00;;;;;;5014983;28;20184;-69
2024/02/23 08:47:43;;;;;;;3.60;1.50;;;6.60;1.00;;;;;;5015367;28;20932;-68
2024/02/23 08:50:09;;;;;;;2.53;1.47;;;6.70;1.00;;;;;;5014537;28;20203;-70
2024/02/23 08:52:35;;;;;;;4.67;2.87;;;6.60;1.00;;;;;;5013303;28;20196;-69
2024/02/23 08:55:00;;;;;;;4.33;3.00;;;6.70;1.00;;;;;;5013617;28;20283;-69
2024/02/23 08:57:27;;;;;;;2.77;1.30;;;6.70;1.00;;;;;;5014970;28;20172;-70
2024/02/23 08:59:57;;;;;;;4.07;1.50;;;6.70;1.00;;;;;;5013386;28;20735;-70
2024/02/23 09:02:23;;;;;;;4.00;2.43;;;6.80;1.00;;;;;;5012948;28;20426;-70
2024/02/23 09:04:49;;;;;;;3.97;2.33;;;6.90;1.00;;;;;;5014332;28;20508;-69
2024/02/23 09:07:14;;;;;;;9.63;2.20;;;6.80;1.00;;;;;;5014515;28;20516;-68
2024/02/23 09:09:58;;;;;;;3.67;2.20;;;6.90;1.00;;;;;;5013333;28;20286;-68
2024/02/23 09:12:24;;;;;;;5.30;2.60;;;6.90;1.00;;;;;;5012290;28;20192;-69
2024/02/23 09:14:49;;;;;;;3.60;2.20;;;7.00;1.00;;;;;;5014208;28;20427;-69
2024/02/23 09:17:15;;;;;;;3.67;1.90;;;7.00;1.00;;;;;;5012953;28;20185;-69
2024/02/23 09:19:41;;;;;;;2.20;1.30;;;7.30;1.00;;;;;;5012902;28;20651;-69
2024/02/23 09:22:07;;;;;;;4.80;1.20;;;7.00;1.00;;;;;;5014452;28;20197;-69
2024/02/23 09:24:33;;;;;;;3.33;1.33;;;7.00;1.00;;;;;;5014045;28;20566;-69
2024/02/23 09:26:58;;;;;;;3.60;1.07;;;7.00;1.00;;;;;;5014063;28;20481;-69
2024/02/23 09:29:24;;;;;;;2.63;1.30;;;7.20;1.00;;;;;;5012731;28;20456;-69
2024/02/23 09:31:49;;;;;;;2.77;1.70;;;7.40;1.00;;;;;;5013745;28;20185;-69
2024/02/23 09:34:15;;;;;;;3.20;1.47;;;7.60;1.00;;;;;;5013773;28;20210;-69
2024/02/23 09:36:41;;;;;;;4.13;1.40;;;7.70;1.00;;;;;;5013303;28;20240;-69
2024/02/23 09:39:06;;;;;;;3.27;1.50;;;8.00;1.00;;;;;;5012856;28;20182;-69
2024/02/23 09:41:34;;;;;;;3.23;1.43;;;8.10;1.00;;;;;;5013749;28;20501;-69
2024/02/23 09:44:01;;;;;;;2.67;1.47;;;8.20;1.00;;;;;;5014261;28;20203;-70
2024/02/23 09:46:27;;;;;;;1.70;1.00;;;8.30;1.00;;;;;;5014499;28;20426;-70
2024/02/23 09:48:56;;;;;;;3.70;1.50;;;8.40;1.00;;;;;;5014137;28;20438;-70
2024/02/23 09:51:23;;;;;;;3.90;1.53;;;8.40;1.00;;;;;;5013556;28;20422;-69
2024/02/23 09:53:51;;;;;;;3.50;1.53;;;8.20;1.00;;;;;;5013421;28;20440;-68
2024/02/23 09:56:19;;;;;;;4.43;1.60;;;8.30;1.00;;;;;;5012837;28;20413;-69
2024/02/23 09:58:49;;;;;;;2.63;1.90;;;8.50;1.00;;;;;;5012721;28;20432;-69
2024/02/23 10:01:20;;;;;;;3.30;1.70;;;8.50;1.00;;;;;;5012586;28;20478;-69
2024/02/23 10:03:46;;;;;;;5.70;1.70;;;8.30;1.00;;;;;;5013078;28;20523;-68
2024/02/23 10:06:11;;;;;;;2.83;1.70;;;8.40;1.00;;;;;;5012040;28;20451;-69
2024/02/23 10:08:37;;;;;;;3.10;1.33;;;8.40;1.00;;;;;;5013163;28;20421;-69
2024/02/23 10:11:03;;;;;;;4.23;1.27;;;8.40;1.00;;;;;;5012870;28;20210;-69
2024/02/23 10:13:29;;;;;;;1.93;1.13;;;8.70;1.00;;;;;;5013257;28;20600;-69
2024/02/23 10:15:55;;;;;;;6.20;2.10;;;8.60;1.00;;;;;;5012032;28;20183;-69
2024/02/23 10:18:21;;;;;;;3.37;1.53;;;8.70;1.00;;;;;;5012976;28;20435;-69
2024/02/23 10:20:50;;;;;;;4.37;1.60;;;8.70;1.00;;;;;;5012481;28;20182;-69
2024/02/23 10:23:15;;;;;;;3.43;1.60;;;8.80;1.00;;;;;;5011414;28;20206;-70
2024/02/23 10:25:41;;;;;;;4.80;1.57;;;9.10;1.00;;;;;;5013009;28;20543;-69
2024/02/23 10:28:07;;;;;;;3.73;1.73;;;8.90;1.00;;;;;;5012630;28;20258;-70
2024/02/23 10:30:33;;;;;;;4.27;1.50;;;9.00;1.00;;;;;;5012383;28;20208;-69
2024/02/23 10:32:59;;;;;;;3.03;1.93;;;8.90;1.00;;;;;;5012678;28;20439;-69
2024/02/23 10:35:26;;;;;;;2.23;1.33;;;8.90;1.00;;;;;;5012801;28;20418;-70
2024/02/23 10:37:54;;;;;;;2.50;1.70;;;8.90;1.00;;;;;;5012362;28;20841;-69
2024/02/23 10:40:23;;;;;;;4.37;2.00;;;9.00;1.00;;;;;;5013779;28;20417;-68
2024/02/23 10:42:51;;;;;;;6.43;1.70;;;8.80;1.00;;;;;;5016073;28;20448;-68
2024/02/23 10:45:18;;;;;;;3.27;1.63;;;8.70;1.00;;;;;;5016372;28;20425;-69
2024/02/23 10:47:45;;;;;;;2.70;1.60;;;8.90;1.00;;;;;;5014887;28;20426;-68
2024/02/23 10:50:14;;;;;;;6.03;1.73;;;9.00;1.00;;;;;;5015862;28;20556;-68
2024/02/23 10:52:42;;;;;;;3.60;2.30;;;9.30;1.00;;;;;;5016698;28;20430;-68
2024/02/23 10:55:09;;;;;;;5.20;1.90;;;9.40;1.00;;;;;;5017898;28;20959;-67
2024/02/23 10:57:35;;;;;;;7.10;2.40;;;9.40;1.00;;;;;;5020826;28;20410;-69
2024/02/23 11:00:05;;;;;;;3.60;1.60;;;9.20;1.00;;;;;;5016210;28;20445;-69
2024/02/23 11:02:32;;;;;;;2.23;1.60;;;9.20;1.00;;;;;;5016522;28;20426;-69
2024/02/23 11:04:59;;;;;;;4.80;2.27;;;9.00;1.00;;;;;;5016380;28;20417;-68
2024/02/23 11:07:28;;;;;;;3.47;1.73;;;9.20;1.00;;;;;;5016335;28;20417;-70
2024/02/23 11:09:58;;;;;;;2.23;1.30;;;9.20;1.00;;;;;;5015825;28;21038;-70
2024/02/23 11:12:30;;;;;;;3.43;1.70;;;9.40;1.00;;;;;;5015766;28;20417;-69
2024/02/23 11:15:03;;;;;;;2.20;1.23;;;9.20;1.00;;;;;;5016021;28;20452;-69
2024/02/23 11:17:30;;;;;;;4.70;2.30;;;9.20;1.00;;;;;;5016291;28;20417;-68
2024/02/23 11:19:57;;;;;;;3.37;2.00;;;9.10;1.00;;;;;;5016121;28;20450;-69
2024/02/23 11:22:26;;;;;;;3.13;1.80;;;8.70;1.00;;;;;;5015994;28;20838;-68
2024/02/23 11:24:53;;;;;;;4.53;1.50;;;8.70;1.00;;;;;;5015904;28;20421;-70
2024/02/23 11:27:19;;;;;;;5.27;1.80;;;8.60;1.00;;;;;;5016251;28;20417;-70
2024/02/23 11:29:49;;;;;;;2.70;1.40;;;8.70;1.00;;;;;;5015769;28;20465;-69
2024/02/23 11:32:17;;;;;;;7.83;1.63;;;8.70;1.00;;;;;;5014893;28;20932;-70
2024/02/23 11:34:59;;;;;;;3.07;1.50;;;8.60;1.00;;;;;;5016181;28;20425;-69
2024/02/23 11:37:28;;;;;;;2.13;1.40;;;8.60;1.00;;;;;;5015894;28;20497;-69
2024/02/23 11:39:57;;;;;;;2.57;1.20;;;8.60;1.00;;;;;;5015474;28;20409;-70
2024/02/23 11:42:24;;;;;;;1.97;1.43;;;8.60;1.00;;;;;;5015926;28;20413;-69
2024/02/23 11:44:53;;;;;;;4.57;1.80;;;8.70;1.00;;;;;;5014230;28;20963;-69
2024/02/23 11:47:19;;;;;;;4.77;1.87;;;8.80;1.00;;;;;;5015208;28;20421;-68
2024/02/23 11:49:44;;;;;;;6.53;2.23;;;8.80;1.00;;;;;;5014661;28;20991;-69
2024/02/23 11:52:10;;;;;;;4.00;1.80;;;8.90;1.00;;;;;;5014231;28;20179;-69
2024/02/23 11:54:37;;;;;;;7.53;1.60;;;9.10;1.00;;;;;;5014897;28;20169;-69
2024/02/23 11:57:03;;;;;;;3.13;1.40;;;9.00;1.00;;;;;;5014771;28;20501;-70
2024/02/23 11:59:28;;;;;;;2.90;1.50;;;9.10;1.00;;;;;;5015271;28;20564;-70
2024/02/23 12:01:54;;;;;;;2.10;1.40;;;9.20;1.00;;;;;;5013587;28;20449;-69
2024/02/23 12:04:20;;;;;;;3.30;1.63;;;9.30;1.00;;;;;;5014777;28;20211;-69
2024/02/23 12:06:45;;;;;;;6.57;2.23;;;9.20;1.00;;;;;;5014804;28;20933;-69
2024/02/23 12:09:12;;;;;;;3.83;1.83;;;9.10;1.00;;;;;;5014453;28;20264;-70
2024/02/23 12:11:38;;;;;;;3.60;1.53;;;9.20;1.00;;;;;;5014737;28;20581;-69
2024/02/23 12:14:07;;;;;;;5.90;1.73;;;9.40;1.00;;;;;;5014465;28;20460;-69
2024/02/23 12:16:35;;;;;;;4.10;2.10;;;9.20;1.00;;;;;;5014456;28;20417;-69
2024/02/23 12:19:01;;;;;;;5.23;1.60;;;9.10;1.00;;;;;;5014605;28;20422;-68
2024/02/23 12:21:27;;;;;;;3.20;1.70;;;9.20;1.00;;;;;;5014324;28;20418;-70
2024/02/23 12:23:53;;;;;;;5.60;1.67;;;9.00;1.00;;;;;;5014204;28;20507;-70
2024/02/23 12:26:18;;;;;;;4.33;1.97;;;8.90;1.00;;;;;;5014157;28;20281;-69
2024/02/23 12:28:45;;;;;;;3.10;1.77;;;9.10;1.00;;;;;;5012835;28;20415;-69
2024/02/23 12:31:11;;;;;;;3.50;1.70;;;8.90;1.00;;;;;;5013867;28;20205;-69
2024/02/23 12:33:40;;;;;;;3.50;1.87;;;8.90;1.00;;;;;;5014163;28;20438;-69
2024/02/23 12:36:07;;;;;;;4.97;1.70;;;8.90;1.00;;;;;;5014316;28;20187;-70
2024/02/23 12:38:33;;;;;;;4.90;1.47;;;9.10;1.00;;;;;;5012572;28;20972;-69
2024/02/23 12:41:00;;;;;;;6.90;2.40;;;9.40;1.00;;;;;;5013540;28;20451;-69
2024/02/23 12:43:29;;;;;;;2.23;1.47;;;9.70;1.00;;;;;;5013638;28;20438;-69
2024/02/23 12:45:55;;;;;;;2.40;1.50;;;9.70;1.00;;;;;;5012495;28;20513;-69
2024/02/23 12:48:21;;;;;;;6.07;1.83;;;9.70;1.00;;;;;;5012624;28;20481;-68
2024/02/23 12:50:48;;;;;;;6.53;2.20;;;9.50;1.00;;;;;;5013329;28;21047;-68
2024/02/23 12:53:34;;;;;;;4.53;2.60;;;9.40;1.00;;;;;;5012315;28;20504;-68
2024/02/23 12:56:04;;;;;;;4.37;3.17;;;9.40;1.00;;;;;;5013718;28;20464;-70
2024/02/23 12:58:33;;;;;;;6.03;2.83;;;9.40;1.00;;;;;;5013929;28;20410;-69
2024/02/23 13:00:59;;;;;;;5.10;2.80;;;9.20;1.00;;;;;;5013738;28;20610;-69